createdAt,value
2022-08-26T00:01:14.797Z,19.82
2022-08-26T00:03:50.716Z,19.74
2022-08-26T00:06:20.332Z,19.72
2022-08-26T00:08:50.277Z,19.78
2022-08-26T00:11:36.705Z,19.78
2022-08-26T00:14:06.292Z,19.78
2022-08-26T00:16:47.187Z,19.75
2022-08-26T00:19:18.632Z,19.83
2022-08-26T00:21:48.700Z,19.84
2022-08-26T00:24:23.952Z,19.86
2022-08-26T00:26:53.407Z,19.89
2022-08-26T00:29:22.870Z,19.92
2022-08-26T00:31:59.157Z,19.92
2022-08-26T00:34:28.728Z,19.79
2022-08-26T00:36:57.852Z,19.80
2022-08-26T00:39:27.899Z,19.80
2022-08-26T00:41:57.153Z,19.79
2022-08-26T00:44:26.714Z,19.66
2022-08-26T00:47:02.919Z,19.80
2022-08-26T00:49:39.133Z,19.81
2022-08-26T00:52:19.283Z,19.82
2022-08-26T00:54:55.430Z,19.77
2022-08-26T00:57:25.615Z,19.72
2022-08-26T01:00:00.568Z,19.70
2022-08-26T01:02:32.504Z,19.69
2022-08-26T01:05:05.189Z,19.66
2022-08-26T01:07:45.149Z,19.67
2022-08-26T01:10:17.708Z,19.63
2022-08-26T01:12:50.148Z,19.54
2022-08-26T01:15:24.675Z,19.45
2022-08-26T01:18:03.326Z,19.39
2022-08-26T01:20:40.834Z,19.38
2022-08-26T01:23:14.708Z,19.34
2022-08-26T01:25:52.257Z,19.32
2022-08-26T01:28:24.827Z,19.30
2022-08-26T01:30:57.154Z,19.32
2022-08-26T01:33:42.633Z,19.34
2022-08-26T01:36:13.053Z,19.30
2022-08-26T01:38:44.901Z,19.27
2022-08-26T01:41:19.742Z,19.25
2022-08-26T01:43:59.094Z,19.21
2022-08-26T01:46:32.594Z,19.19
2022-08-26T01:49:06.686Z,19.10
2022-08-26T01:51:39.827Z,19.12
2022-08-26T01:54:13.737Z,19.06
2022-08-26T01:56:48.960Z,19.03
2022-08-26T01:59:20.227Z,19.00
2022-08-26T02:01:55.835Z,18.97
2022-08-26T02:04:29.378Z,18.75
2022-08-26T02:06:59.482Z,18.96
2022-08-26T02:09:30.862Z,18.88
2022-08-26T02:12:01.827Z,18.91
2022-08-26T02:14:35.262Z,18.86
2022-08-26T02:17:19.326Z,18.88
2022-08-26T02:19:57.280Z,18.88
2022-08-26T02:22:26.645Z,18.89
2022-08-26T02:25:01.042Z,18.92
2022-08-26T02:27:34.539Z,18.92
2022-08-26T02:30:13.108Z,18.92
2022-08-26T02:32:43.340Z,18.90
2022-08-26T02:35:20.097Z,18.91
2022-08-26T02:37:50.245Z,18.93
2022-08-26T02:40:25.179Z,18.92
2022-08-26T02:42:56.052Z,19.05
2022-08-26T02:45:27.129Z,19.05
2022-08-26T02:47:58.174Z,19.03
2022-08-26T02:50:34.553Z,19.06
2022-08-26T02:53:04.138Z,19.08
2022-08-26T02:55:42.678Z,19.14
2022-08-26T02:58:15.614Z,19.09
2022-08-26T03:00:52.889Z,19.20
2022-08-26T03:03:35.729Z,19.10
2022-08-26T03:06:05.125Z,19.35
2022-08-26T03:08:34.271Z,19.43
2022-08-26T03:11:10.838Z,19.51
2022-08-26T03:13:41.016Z,19.52
2022-08-26T03:16:10.831Z,19.57
2022-08-26T03:18:52.200Z,19.62
2022-08-26T03:21:23.616Z,19.55
2022-08-26T03:23:53.703Z,19.72
2022-08-26T03:26:24.984Z,19.77
2022-08-26T03:29:12.299Z,19.90
2022-08-26T03:31:41.561Z,20.07
2022-08-26T03:34:12.641Z,20.21
2022-08-26T03:36:41.774Z,20.36
2022-08-26T03:39:11.143Z,20.39
2022-08-26T03:41:44.723Z,20.40
2022-08-26T03:44:14.721Z,20.34
2022-08-26T03:46:44.155Z,20.15
2022-08-26T03:49:18.437Z,20.30
2022-08-26T03:51:47.634Z,20.28
2022-08-26T03:54:17.454Z,20.32
2022-08-26T03:56:48.632Z,20.40
2022-08-26T03:59:17.854Z,20.52
2022-08-26T04:01:47.236Z,20.63
2022-08-26T04:04:24.565Z,20.79
2022-08-26T04:06:58.634Z,21.01
2022-08-26T04:09:29.441Z,21.21
2022-08-26T04:12:00.890Z,21.37
2022-08-26T04:14:37.174Z,21.41
2022-08-26T04:17:07.875Z,21.71
2022-08-26T04:19:42.276Z,21.70
2022-08-26T04:22:11.473Z,21.73
2022-08-26T04:24:40.896Z,21.68
2022-08-26T04:27:22.358Z,21.88
2022-08-26T04:29:55.156Z,22.04
2022-08-26T04:32:32.459Z,22.29
2022-08-26T04:35:02.334Z,22.59
2022-08-26T04:37:44.075Z,22.80
2022-08-26T04:40:18.716Z,23.02
2022-08-26T04:42:50.366Z,23.03
2022-08-26T04:45:21.252Z,23.27
2022-08-26T04:47:58.018Z,23.32
2022-08-26T04:50:27.694Z,23.37
2022-08-26T04:52:57.155Z,23.40
2022-08-26T04:55:39.890Z,23.51
2022-08-26T04:58:19.456Z,23.61
2022-08-26T05:00:56.362Z,23.70
2022-08-26T05:03:26.843Z,23.74
2022-08-26T05:06:11.710Z,23.77
2022-08-26T05:08:41.596Z,23.89
2022-08-26T05:11:15.988Z,23.97
2022-08-26T05:13:47.151Z,24.04
2022-08-26T05:19:06.493Z,24.15
2022-08-26T05:21:38.273Z,24.17
2022-08-26T05:24:16.296Z,24.18
2022-08-26T05:26:51.792Z,24.25
2022-08-26T05:29:28.368Z,24.25
2022-08-26T05:31:57.615Z,24.14
2022-08-26T05:34:30.270Z,24.36
2022-08-26T05:37:02.417Z,24.46
2022-08-26T05:39:33.546Z,24.57
2022-08-26T05:42:07.917Z,24.70
2022-08-26T05:44:55.783Z,24.83
2022-08-26T05:47:25.808Z,24.97
2022-08-26T05:50:00.701Z,25.11
2022-08-26T05:52:35.123Z,25.23
2022-08-26T05:55:04.307Z,25.36
2022-08-26T05:57:36.329Z,25.48
2022-08-26T06:00:12.156Z,25.58
2022-08-26T06:02:44.056Z,25.68
2022-08-26T06:05:23.167Z,25.76
2022-08-26T06:08:05.663Z,25.81
2022-08-26T06:10:40.444Z,25.95
2022-08-26T06:13:12.399Z,26.05
2022-08-26T06:15:45.255Z,26.16
2022-08-26T06:18:16.327Z,26.24
2022-08-26T06:20:57.850Z,26.32
2022-08-26T06:23:42.576Z,26.43
2022-08-26T06:26:17.918Z,26.54
2022-08-26T06:28:47.272Z,26.60
2022-08-26T06:31:18.567Z,26.67
2022-08-26T06:33:47.937Z,26.77
2022-08-26T06:36:21.125Z,26.83
2022-08-26T06:38:51.226Z,26.90
2022-08-26T06:41:22.472Z,26.97
2022-08-26T06:43:52.251Z,27.08
2022-08-26T06:46:24.357Z,27.16
2022-08-26T06:48:57.775Z,27.24
2022-08-26T06:51:34.578Z,27.32
2022-08-26T06:54:06.698Z,27.37
2022-08-26T06:56:39.952Z,27.47
2022-08-26T06:59:09.952Z,27.51
2022-08-26T07:01:45.652Z,27.55
2022-08-26T07:04:21.899Z,27.60
2022-08-26T07:06:57.994Z,27.64
2022-08-26T07:09:34.825Z,27.73
2022-08-26T07:12:06.948Z,27.79
2022-08-26T07:14:36.626Z,27.88
2022-08-26T07:17:13.715Z,27.91
2022-08-26T07:19:48.702Z,27.96
2022-08-26T07:22:18.407Z,27.99
2022-08-26T07:24:47.877Z,28.00
2022-08-26T07:27:18.575Z,28.00
2022-08-26T07:29:48.088Z,28.09
2022-08-26T07:32:23.085Z,28.14
2022-08-26T07:34:52.226Z,28.18
2022-08-26T07:37:22.294Z,28.23
2022-08-26T07:39:52.526Z,28.31
2022-08-26T07:42:23.704Z,28.37
2022-08-26T07:44:53.270Z,28.43
2022-08-26T07:47:25.639Z,28.47
2022-08-26T07:49:57.321Z,28.47
2022-08-26T07:52:28.245Z,28.55
2022-08-26T07:54:58.447Z,28.59
2022-08-26T07:57:28.316Z,28.59
2022-08-26T07:59:57.942Z,28.64
2022-08-26T08:02:30.444Z,28.66
2022-08-26T08:04:59.922Z,28.69
2022-08-26T08:07:44.782Z,28.73
2022-08-26T08:10:21.329Z,28.82
2022-08-26T08:12:52.400Z,28.87
2022-08-26T08:15:24.574Z,29.03
2022-08-26T08:18:00.235Z,28.90
2022-08-26T08:20:31.776Z,28.90
2022-08-26T08:23:03.875Z,28.92
2022-08-26T08:25:33.989Z,28.89
2022-08-26T08:28:03.045Z,28.99
2022-08-26T08:30:32.454Z,29.05
2022-08-26T08:33:12.080Z,29.13
2022-08-26T08:35:43.308Z,29.18
2022-08-26T08:38:12.370Z,29.25
2022-08-26T08:40:42.824Z,29.31
2022-08-26T08:43:19.356Z,29.35
2022-08-26T08:45:53.369Z,29.29
2022-08-26T08:48:29.050Z,29.39
2022-08-26T08:51:07.746Z,29.43
2022-08-26T08:53:41.269Z,29.49
2022-08-26T08:56:23.265Z,29.53
2022-08-26T08:58:57.059Z,29.75
2022-08-26T09:01:46.862Z,29.80
2022-08-26T09:04:46.716Z,29.78
2022-08-26T09:07:21.558Z,29.73
2022-08-26T09:09:56.825Z,29.72
2022-08-26T09:12:29.910Z,29.69
2022-08-26T09:15:04.360Z,29.70
2022-08-26T09:17:50.514Z,29.63
2022-08-26T09:20:37.985Z,29.71
2022-08-26T09:23:08.961Z,29.75
2022-08-26T09:25:48.370Z,29.81
2022-08-26T09:28:20.423Z,29.85
2022-08-26T09:31:05.729Z,29.87
2022-08-26T09:33:42.385Z,29.95
2022-08-26T09:36:25.953Z,30.04
2022-08-26T09:38:56.078Z,30.11
2022-08-26T09:41:31.234Z,30.20
2022-08-26T09:44:15.601Z,30.28
2022-08-26T09:46:54.199Z,30.26
2022-08-26T09:49:36.391Z,30.39
2022-08-26T09:52:13.216Z,30.39
2022-08-26T09:54:44.222Z,30.37
2022-08-26T09:57:27.359Z,30.40
2022-08-26T10:00:00.676Z,30.44
2022-08-26T10:02:52.724Z,30.49
2022-08-26T10:05:33.373Z,30.54
2022-08-26T10:08:19.565Z,30.59
2022-08-26T10:10:53.127Z,30.64
2022-08-26T10:13:29.583Z,30.74
2022-08-26T10:16:10.727Z,30.85
2022-08-26T10:18:42.664Z,31.05
2022-08-26T10:21:18.057Z,31.00
2022-08-26T10:23:52.931Z,30.99
2022-08-26T10:26:28.734Z,30.97
2022-08-26T10:29:15.359Z,31.00
2022-08-26T10:31:51.462Z,31.03
2022-08-26T10:34:21.385Z,31.07
2022-08-26T10:37:13.937Z,31.15
2022-08-26T10:39:59.812Z,31.23
2022-08-26T10:42:35.189Z,31.33
2022-08-26T10:45:11.899Z,31.43
2022-08-26T10:47:52.336Z,31.49
2022-08-26T10:50:24.201Z,31.54
2022-08-26T10:53:02.369Z,31.53
2022-08-26T10:55:40.677Z,31.41
2022-08-26T10:58:26.544Z,31.47
2022-08-26T11:01:22.826Z,31.50
2022-08-26T11:04:00.770Z,31.52
2022-08-26T11:06:31.437Z,31.49
2022-08-26T11:09:02.336Z,31.54
2022-08-26T11:11:54.116Z,31.67
2022-08-26T11:14:56.186Z,31.95
2022-08-26T11:18:00.582Z,32.06
2022-08-26T11:20:36.288Z,31.85
2022-08-26T11:23:40.469Z,31.81
2022-08-26T11:26:35.821Z,31.77
2022-08-26T11:29:13.522Z,31.83
2022-08-26T11:31:58.101Z,31.84
2022-08-26T11:35:02.156Z,31.84
2022-08-26T11:37:37.258Z,31.77
2022-08-26T11:40:15.035Z,31.65
2022-08-26T11:42:55.154Z,31.59
2022-08-26T11:45:38.968Z,31.48
2022-08-26T11:48:17.314Z,31.26
2022-08-26T11:50:54.981Z,31.09
2022-08-26T11:53:26.168Z,30.86
2022-08-26T11:55:57.853Z,30.73
2022-08-26T11:58:29.709Z,30.65
2022-08-26T12:01:04.059Z,30.61
2022-08-26T12:03:40.674Z,30.63
2022-08-26T12:06:16.666Z,30.72
2022-08-26T12:08:47.542Z,30.76
2022-08-26T12:11:30.099Z,30.65
2022-08-26T12:14:07.414Z,30.53
2022-08-26T12:16:41.561Z,30.51
2022-08-26T12:19:25.853Z,30.52
2022-08-26T12:22:03.169Z,30.54
2022-08-26T12:24:33.010Z,30.55
2022-08-26T12:27:17.417Z,30.73
2022-08-26T12:29:48.396Z,30.77
2022-08-26T12:32:20.394Z,30.96
2022-08-26T12:34:50.714Z,31.04
2022-08-26T12:37:20.646Z,31.12
2022-08-26T12:39:49.942Z,31.18
2022-08-26T12:42:42.178Z,31.43
2022-08-26T12:45:30.133Z,31.69
2022-08-26T12:48:14.818Z,31.87
2022-08-26T12:57:20.518Z,31.81
2022-08-26T12:59:49.679Z,31.74
2022-08-26T13:02:37.316Z,31.66
2022-08-26T13:05:11.861Z,31.68
2022-08-26T13:07:41.281Z,31.76
2022-08-26T13:10:10.503Z,31.87
2022-08-26T13:12:42.191Z,31.93
2022-08-26T13:15:11.682Z,31.93
2022-08-26T13:17:40.900Z,31.91
2022-08-26T13:20:11.037Z,31.86
2022-08-26T13:25:10.491Z,31.75
2022-08-26T13:27:41.748Z,31.68
2022-08-26T13:30:17.407Z,31.62
2022-08-26T13:32:47.517Z,31.55
2022-08-26T13:35:17.171Z,31.44
2022-08-26T13:37:46.777Z,31.43
2022-08-26T13:40:15.981Z,31.39
2022-08-26T13:42:49.903Z,31.37
2022-08-26T13:45:25.288Z,31.35
2022-08-26T13:47:54.490Z,31.37
2022-08-26T13:50:23.488Z,31.31
2022-08-26T13:52:53.212Z,31.28
2022-08-26T13:55:22.335Z,31.12
2022-08-26T13:57:58.807Z,31.09
2022-08-26T14:00:28.258Z,31.01
2022-08-26T14:02:58.099Z,30.90
2022-08-26T14:05:27.575Z,30.93
2022-08-26T14:07:56.993Z,30.87
2022-08-26T14:10:27.865Z,30.94
2022-08-26T14:12:59.189Z,30.94
2022-08-26T14:15:29.089Z,30.92
2022-08-26T14:18:04.514Z,30.86
2022-08-26T14:20:46.239Z,30.81
2022-08-26T14:23:15.609Z,30.70
2022-08-26T14:25:45.158Z,30.72
2022-08-26T14:28:16.694Z,30.70
2022-08-26T14:30:58.312Z,30.60
2022-08-26T14:33:35.843Z,30.52
2022-08-26T14:36:19.005Z,30.42
2022-08-26T14:38:48.258Z,30.35
2022-08-26T14:41:18.828Z,30.26
2022-08-26T14:43:54.081Z,30.20
2022-08-26T14:46:26.653Z,29.94
2022-08-26T14:49:01.051Z,30.22
2022-08-26T14:51:31.463Z,30.13
2022-08-26T14:54:15.816Z,30.10
2022-08-26T14:56:49.163Z,30.11
2022-08-26T14:59:23.453Z,30.07
2022-08-26T15:01:53.118Z,29.97
2022-08-26T15:04:22.946Z,29.78
2022-08-26T15:06:54.061Z,29.64
2022-08-26T15:09:28.834Z,29.58
2022-08-26T15:11:58.567Z,29.52
2022-08-26T15:14:32.796Z,29.40
2022-08-26T15:17:02.943Z,29.31
2022-08-26T15:19:32.216Z,29.24
2022-08-26T15:22:01.694Z,29.20
2022-08-26T15:24:30.802Z,29.16
2022-08-26T15:27:00.072Z,29.03
2022-08-26T15:29:31.705Z,28.91
2022-08-26T15:32:06.805Z,28.74
2022-08-26T15:34:36.306Z,28.63
2022-08-26T15:37:05.712Z,28.47
2022-08-26T15:39:34.995Z,28.30
2022-08-26T15:42:04.555Z,28.21
2022-08-26T15:44:36.329Z,28.14
2022-08-26T15:47:11.113Z,28.01
2022-08-26T15:49:40.614Z,27.87
2022-08-26T15:52:09.956Z,27.72
2022-08-26T15:54:44.158Z,27.69
2022-08-26T15:57:15.358Z,27.54
2022-08-26T15:59:52.719Z,27.41
2022-08-26T16:02:22.524Z,27.31
2022-08-26T16:04:51.706Z,27.17
2022-08-26T16:07:28.868Z,27.06
2022-08-26T16:09:58.484Z,26.94
2022-08-26T16:12:27.861Z,26.86
2022-08-26T16:17:39.194Z,26.69
2022-08-26T16:20:13.718Z,26.61
2022-08-26T16:22:42.807Z,26.50
2022-08-26T16:25:12.713Z,26.52
2022-08-26T16:27:42.003Z,26.40
2022-08-26T16:30:22.420Z,26.26
2022-08-26T16:32:51.861Z,26.21
2022-08-26T16:35:21.289Z,26.11
2022-08-26T16:37:56.215Z,25.99
2022-08-26T16:40:26.144Z,25.92
2022-08-26T16:42:55.479Z,25.84
2022-08-26T16:45:27.395Z,25.69
2022-08-26T16:47:57.338Z,25.60
2022-08-26T16:50:26.742Z,25.62
2022-08-26T16:52:57.836Z,25.60
2022-08-26T16:55:27.321Z,25.52
2022-08-26T16:57:57.136Z,25.28
2022-08-26T17:00:30.568Z,25.43
2022-08-26T17:03:01.585Z,25.42
2022-08-26T17:05:31.487Z,25.37
2022-08-26T17:08:01.882Z,25.32
2022-08-26T17:10:32.459Z,25.33
2022-08-26T17:13:06.923Z,25.22
2022-08-26T17:15:38.408Z,24.96
2022-08-26T17:18:08.663Z,25.16
2022-08-26T17:20:48.732Z,25.11
2022-08-26T17:23:19.396Z,25.11
2022-08-26T17:25:49.273Z,24.93
2022-08-26T17:28:18.406Z,24.99
2022-08-26T17:30:54.828Z,24.97
2022-08-26T17:33:24.800Z,24.94
2022-08-26T17:36:00.117Z,24.83
2022-08-26T17:38:30.725Z,24.76
2022-08-26T17:41:00.869Z,24.87
2022-08-26T17:43:30.978Z,24.83
2022-08-26T17:46:08.525Z,24.73
2022-08-26T17:48:39.338Z,24.65
2022-08-26T17:51:10.679Z,24.59
2022-08-26T17:53:40.978Z,24.58
2022-08-26T17:56:12.059Z,24.51
2022-08-26T17:58:50.984Z,24.45
2022-08-26T18:01:30.749Z,24.36
2022-08-26T18:04:00.904Z,24.25
2022-08-26T18:06:31.239Z,23.98
2022-08-26T18:09:00.876Z,24.11
2022-08-26T18:11:36.624Z,24.10
2022-08-26T18:14:23.966Z,24.12
2022-08-26T18:16:55.441Z,24.01
2022-08-26T18:19:25.116Z,23.91
2022-08-26T18:21:54.433Z,23.78
2022-08-26T18:24:24.321Z,23.81
2022-08-26T18:26:53.481Z,23.78
2022-08-26T18:29:29.915Z,23.70
2022-08-26T18:32:01.492Z,23.60
2022-08-26T18:34:31.828Z,23.64
2022-08-26T18:37:01.308Z,23.62
2022-08-26T18:39:31.255Z,23.63
2022-08-26T18:42:01.719Z,23.54
2022-08-26T18:44:31.372Z,23.48
2022-08-26T18:47:04.614Z,23.41
2022-08-26T18:49:39.094Z,23.28
2022-08-26T18:52:08.911Z,23.11
2022-08-26T18:54:38.674Z,23.09
2022-08-26T18:57:08.172Z,23.10
2022-08-26T18:59:37.413Z,23.06
2022-08-26T19:02:09.865Z,23.03
2022-08-26T19:04:40.148Z,22.86
2022-08-26T19:07:09.690Z,22.90
2022-08-26T19:09:44.268Z,23.10
2022-08-26T19:12:14.762Z,23.08
2022-08-26T19:14:46.338Z,22.84
2022-08-26T19:17:18.287Z,22.95
2022-08-26T19:19:53.348Z,22.73
2022-08-26T19:22:24.384Z,22.84
2022-08-26T19:24:53.913Z,22.78
2022-08-26T19:27:23.307Z,22.61
2022-08-26T19:29:52.816Z,22.62
2022-08-26T19:32:29.951Z,22.59
2022-08-26T19:34:59.638Z,22.45
2022-08-26T19:37:28.894Z,22.36
2022-08-26T19:40:04.486Z,22.51
2022-08-26T19:42:35.294Z,22.49
2022-08-26T19:45:25.267Z,22.29
2022-08-26T19:47:57.216Z,22.39
2022-08-26T19:50:28.797Z,22.33
2022-08-26T19:52:58.054Z,22.42
2022-08-26T19:55:27.710Z,22.28
2022-08-26T19:57:57.346Z,22.62
2022-08-26T20:00:31.635Z,22.72
2022-08-26T20:03:03.539Z,22.71
2022-08-26T20:05:32.993Z,22.62
2022-08-26T20:08:07.147Z,22.49
2022-08-26T20:10:41.070Z,22.38
2022-08-26T20:15:58.497Z,22.13
2022-08-26T20:18:42.759Z,22.05
2022-08-26T20:21:29.045Z,21.93
2022-08-26T20:24:08.186Z,21.86
2022-08-26T20:26:39.787Z,21.75
2022-08-26T20:29:09.916Z,21.82
2022-08-26T20:31:42.615Z,21.59
2022-08-26T20:34:20.717Z,21.73
2022-08-26T20:36:51.393Z,21.70
2022-08-26T20:39:28.824Z,21.80
2022-08-26T20:41:58.580Z,21.77
2022-08-26T20:44:27.952Z,21.91
2022-08-26T20:47:02.839Z,21.81
2022-08-26T20:49:34.241Z,21.80
2022-08-26T20:52:05.563Z,21.71
2022-08-26T20:54:34.720Z,21.71
2022-08-26T20:57:04.137Z,21.70
2022-08-26T20:59:38.550Z,21.63
2022-08-26T21:02:12.826Z,21.61
2022-08-26T21:04:44.372Z,21.53
2022-08-26T21:07:13.463Z,21.62
2022-08-26T21:09:42.629Z,21.54
2022-08-26T21:12:17.920Z,21.62
2022-08-26T21:14:49.689Z,21.57
2022-08-26T21:17:19.713Z,21.51
2022-08-26T21:19:50.800Z,21.43
2022-08-26T21:22:25.194Z,21.13
2022-08-26T21:24:54.434Z,21.23
2022-08-26T21:27:26.599Z,21.11
2022-08-26T21:29:57.681Z,21.01
2022-08-26T21:32:26.895Z,20.93
2022-08-26T21:34:59.642Z,20.95
2022-08-26T21:37:30.104Z,21.04
2022-08-26T21:40:01.538Z,21.06
2022-08-26T21:42:35.142Z,21.07
2022-08-26T21:45:06.150Z,21.04
2022-08-26T21:47:36.003Z,21.07
2022-08-26T21:50:09.038Z,21.01
2022-08-26T21:52:38.891Z,20.96
2022-08-26T21:55:09.519Z,20.84
2022-08-26T21:57:46.066Z,20.85
2022-08-26T22:00:16.706Z,20.81
2022-08-26T22:02:46.098Z,20.79
2022-08-26T22:05:22.265Z,20.64
2022-08-26T22:07:51.638Z,20.83
2022-08-26T22:10:26.206Z,20.70
2022-08-26T22:12:55.593Z,20.77
2022-08-26T22:15:27.090Z,20.54
2022-08-26T22:17:56.326Z,20.55
2022-08-26T22:20:27.357Z,20.69
2022-08-26T22:22:56.759Z,20.64
2022-08-26T22:25:25.924Z,20.57
2022-08-26T22:27:55.573Z,20.52
2022-08-26T22:30:24.994Z,20.48
2022-08-26T22:32:54.497Z,20.44
2022-08-26T22:35:29.729Z,20.28
2022-08-26T22:38:01.362Z,20.41
2022-08-26T22:40:33.981Z,20.51
2022-08-26T22:43:04.118Z,20.44
2022-08-26T22:45:39.421Z,20.40
2022-08-26T22:48:08.953Z,20.36
2022-08-26T22:50:39.253Z,20.42
2022-08-26T22:53:11.169Z,20.37
2022-08-26T22:55:40.571Z,20.16
2022-08-26T22:58:09.889Z,20.28
2022-08-26T23:00:44.483Z,20.20
2022-08-26T23:03:14.203Z,20.14
2022-08-26T23:05:48.793Z,19.93
2022-08-26T23:08:22.041Z,20.14
2022-08-26T23:11:01.389Z,19.96
2022-08-26T23:13:31.006Z,19.98
2022-08-26T23:18:39.148Z,19.89
2022-08-26T23:21:08.775Z,19.99
2022-08-26T23:23:46.444Z,20.19
2022-08-26T23:26:17.734Z,20.16
2022-08-26T23:31:24.105Z,20.05
2022-08-26T23:34:06.359Z,19.91
2022-08-26T23:36:36.696Z,20.03
2022-08-26T23:39:08.975Z,19.33
2022-08-26T23:41:38.445Z,19.87
2022-08-26T23:44:08.984Z,19.90
2022-08-26T23:46:38.540Z,19.90
2022-08-26T23:49:08.228Z,19.68
2022-08-26T23:51:50.730Z,19.66
2022-08-26T23:54:22.348Z,19.68
2022-08-26T23:56:56.805Z,19.49
2022-08-26T23:59:26.319Z,19.41
